Time;durP1;ratioP1;P1;durP2;ratioP2;P2;SDS_P1;SDS_P2;PMS_P1;PMS_P2;Temp;Humidity;BMP_temperature;BMP_pressure;BME280_temperature;BME280_humidity;BME280_pressure;Samples;Min_cycle;Max_cycle;Signal;HPM_P1;HPM_P2
2021/03/05 00:01:34;;;;;;;;;;;22.90;36.60;;;;;;1622607;71;725;-57
2021/03/05 00:03:36;;;;;;;;;;;22.90;36.70;;;;;;1623176;71;631;-56
2021/03/05 00:05:38;;;;;;;;;;;22.90;36.70;;;;;;1627394;71;740;-56
2021/03/05 00:07:40;;;;;;;;;;;22.90;36.80;;;;;;1587396;73;761;-57
2021/03/05 00:09:42;;;;;;;;;;;22.90;36.90;;;;;;1584420;73;1181;-56
2021/03/05 00:11:44;;;;;;;;;;;22.80;37.10;;;;;;1585579;74;892;-56
2021/03/05 00:13:46;;;;;;;;;;;22.80;37.30;;;;;;1552072;74;1939;-60
2021/03/05 00:15:48;;;;;;;;;;;22.80;37.20;;;;;;1568053;73;749;-57
2021/03/05 00:17:50;;;;;;;;;;;22.80;37.20;;;;;;1574460;73;798;-59
2021/03/05 00:19:52;;;;;;;;;;;22.90;37.10;;;;;;1591652;74;1141;-59
2021/03/05 00:21:53;;;;;;;;;;;22.90;37.10;;;;;;1589980;73;769;-58
2021/03/05 00:23:55;;;;;;;;;;;22.90;37.10;;;;;;1585218;73;780;-59
2021/03/05 00:25:57;;;;;;;;;;;22.90;37.10;;;;;;1574832;73;804;-59
2021/03/05 00:27:59;;;;;;;;;;;22.90;37.00;;;;;;1552234;74;787;-57
2021/03/05 00:30:01;;;;;;;;;;;22.90;37.00;;;;;;1576969;74;1158;-57
2021/03/05 00:32:03;;;;;;;;;;;22.90;37.00;;;;;;1585891;73;741;-59
2021/03/05 00:34:05;;;;;;;;;;;22.90;36.90;;;;;;1584224;73;1934;-59
2021/03/05 00:36:07;;;;;;;;;;;22.90;36.90;;;;;;1573077;73;722;-59
2021/03/05 00:38:09;;;;;;;;;;;22.90;36.80;;;;;;1563832;74;775;-58
2021/03/05 00:40:11;;;;;;;;;;;22.90;36.80;;;;;;1558021;74;1163;-57
2021/03/05 00:42:13;;;;;;;;;;;23.20;36.80;;;;;;1564944;73;786;-60
2021/03/05 00:44:15;;;;;;;;;;;22.90;36.80;;;;;;1586964;73;719;-59
2021/03/05 00:46:17;;;;;;;;;;;23.00;36.70;;;;;;1591046;73;712;-58
2021/03/05 00:48:19;;;;;;;;;;;22.90;36.70;;;;;;1575557;73;792;-57
2021/03/05 00:50:21;;;;;;;;;;;23.00;36.70;;;;;;1591682;73;1129;-57
2021/03/05 00:52:23;;;;;;;;;;;22.90;36.70;;;;;;1592147;73;731;-58
2021/03/05 00:54:25;;;;;;;;;;;22.90;36.60;;;;;;1594645;73;1933;-57
2021/03/05 00:56:27;;;;;;;;;;;23.00;36.60;;;;;;1563562;74;750;-57
2021/03/05 00:58:29;;;;;;;;;;;22.90;36.70;;;;;;1578886;73;738;-56
2021/03/05 01:00:31;;;;;;;;;;;23.00;36.60;;;;;;1579226;74;1203;-58
2021/03/05 01:02:33;;;;;;;;;;;22.90;36.70;;;;;;1590911;73;726;-60
2021/03/05 01:04:35;;;;;;;;;;;23.00;36.70;;;;;;1591209;73;766;-58
2021/03/05 01:06:36;;;;;;;;;;;23.00;36.70;;;;;;1590672;74;732;-59
2021/03/05 01:08:38;;;;;;;;;;;22.90;36.70;;;;;;1591289;73;729;-57
2021/03/05 01:10:41;;;;;;;;;;;22.90;36.80;;;;;;1591367;73;1164;-59
2021/03/05 01:12:42;;;;;;;;;;;22.90;36.80;;;;;;1547357;74;815;-58
2021/03/05 01:14:44;;;;;;;;;;;22.80;36.70;;;;;;1576411;73;1937;-59
2021/03/05 01:16:46;;;;;;;;;;;22.90;36.80;;;;;;1575223;73;716;-58
2021/03/05 01:18:48;;;;;;;;;;;22.90;36.90;;;;;;1587279;73;745;-56
2021/03/05 01:20:52;;;;;;;;;;;23.00;36.90;;;;;;1593396;73;1121;-57
2021/03/05 01:22:54;;;;;;;;;;;22.90;37.10;;;;;;1579267;73;803;-58
2021/03/05 01:24:56;;;;;;;;;;;22.90;37.10;;;;;;1568778;74;796;-58
2021/03/05 01:26:57;;;;;;;;;;;22.90;37.00;;;;;;1578596;73;757;-58
2021/03/05 01:28:59;;;;;;;;;;;22.90;37.10;;;;;;1562801;74;1136;-58
2021/03/05 01:31:01;;;;;;;;;;;22.90;37.10;;;;;;1575138;73;899;-58
2021/03/05 01:33:03;;;;;;;;;;;22.90;37.00;;;;;;1561781;74;1934;-57
2021/03/05 01:35:07;;;;;;;;;;;22.90;37.00;;;;;;1563525;74;795;-58
2021/03/05 01:37:08;;;;;;;;;;;23.00;37.10;;;;;;1565400;74;782;-59
2021/03/05 01:39:10;;;;;;;;;;;22.90;36.90;;;;;;1580530;73;1133;-58
2021/03/05 01:41:12;;;;;;;;;;;22.90;36.80;;;;;;1559055;74;702;-58
2021/03/05 01:43:15;;;;;;;;;;;23.00;36.80;;;;;;1577868;73;784;-58
2021/03/05 01:45:18;;;;;;;;;;;23.00;36.80;;;;;;1557949;74;645;-59
2021/03/05 01:47:20;;;;;;;;;;;23.00;36.70;;;;;;1578277;74;802;-56
2021/03/05 01:49:22;;;;;;;;;;;23.00;36.80;;;;;;1590367;73;1136;-59
2021/03/05 01:51:24;;;;;;;;;;;23.00;36.80;;;;;;1589421;73;734;-57
2021/03/05 01:53:26;;;;;;;;;;;22.90;36.70;;;;;;1592958;73;1971;-58
2021/03/05 01:55:28;;;;;;;;;;;23.00;36.90;;;;;;1554328;74;795;-55
2021/03/05 01:57:30;;;;;;;;;;;22.90;37.00;;;;;;1564097;73;664;-58
2021/03/05 01:59:32;;;;;;;;;;;22.90;37.00;;;;;;1585137;73;1135;-57
2021/03/05 02:01:34;;;;;;;;;;;22.90;37.10;;;;;;1562326;74;730;-58
2021/03/05 02:03:36;;;;;;;;;;;22.90;37.10;;;;;;1560053;74;735;-57
2021/03/05 02:05:38;;;;;;;;;;;22.90;37.40;;;;;;1592952;73;764;-59
2021/03/05 02:07:40;;;;;;;;;;;22.90;37.40;;;;;;1584649;73;768;-57
2021/03/05 02:09:42;;;;;;;;;;;22.90;37.30;;;;;;1564193;74;1165;-58
2021/03/05 02:11:44;;;;;;;;;;;22.90;37.40;;;;;;1550048;74;770;-58
2021/03/05 02:13:46;;;;;;;;;;;23.00;37.30;;;;;;1629931;71;1916;-57
2021/03/05 02:15:47;;;;;;;;;;;22.90;37.30;;;;;;1619902;71;723;-57
2021/03/05 02:17:51;;;;;;;;;;;23.30;37.40;;;;;;1611330;71;790;-59
2021/03/05 02:20:07;;;;;;;;;;;23.00;37.20;;;;;;1614127;71;1171;-59
2021/03/05 02:22:14;;;;;;;;;;;23.00;37.20;;;;;;1638566;71;731;-58
2021/03/05 02:24:23;;;;;;;;;;;23.00;37.10;;;;;;1622030;71;645;-58
2021/03/05 02:26:33;;;;;;;;;;;23.00;37.10;;;;;;1627173;71;882;-57
2021/03/05 02:28:48;;;;;;;;;;;23.00;37.30;;;;;;1619681;71;1847;-57
2021/03/05 02:31:09;;;;;;;;;;;22.90;37.30;;;;;;1624392;71;1148;-56
2021/03/05 02:33:27;;;;;;;;;;;22.90;37.40;;;;;;1623816;71;764;-58
2021/03/05 02:35:31;;;;;;;;;;;23.00;37.50;;;;;;1611999;71;778;-58
2021/03/05 02:37:33;;;;;;;;;;;22.90;37.40;;;;;;1618468;71;751;-57
2021/03/05 02:39:55;;;;;;;;;;;23.00;37.30;;;;;;1621658;71;1119;-55
2021/03/05 02:41:58;;;;;;;;;;;23.00;37.30;;;;;;1619902;71;699;-59
2021/03/05 02:44:00;;;;;;;;;;;23.00;37.30;;;;;;1622063;71;737;-59
2021/03/05 02:46:03;;;;;;;;;;;22.90;37.30;;;;;;1636017;71;919;-57
2021/03/05 02:48:10;;;;;;;;;;;23.00;37.30;;;;;;1624694;71;668;-57
2021/03/05 02:50:13;;;;;;;;;;;23.00;37.30;;;;;;1614323;71;1434;-56
2021/03/05 02:52:17;;;;;;;;;;;23.00;37.20;;;;;;1624288;71;727;-57
2021/03/05 02:54:18;;;;;;;;;;;23.00;37.20;;;;;;1615724;71;1929;-57
2021/03/05 02:56:20;;;;;;;;;;;23.00;37.30;;;;;;1631259;71;673;-58
2021/03/05 02:58:23;;;;;;;;;;;23.00;37.20;;;;;;1617332;71;773;-56
2021/03/05 03:00:25;;;;;;;;;;;23.00;37.30;;;;;;1622423;71;1135;-56
2021/03/05 03:02:27;;;;;;;;;;;22.90;37.30;;;;;;1629743;71;794;-59
2021/03/05 03:04:29;;;;;;;;;;;23.00;37.30;;;;;;1622372;71;731;-56
2021/03/05 03:06:31;;;;;;;;;;;23.00;37.30;;;;;;1622408;71;769;-58
2021/03/05 03:08:32;;;;;;;;;;;23.00;37.50;;;;;;1621769;71;712;-59
2021/03/05 03:10:34;;;;;;;;;;;23.00;37.60;;;;;;1627114;71;1133;-59
2021/03/05 03:12:36;;;;;;;;;;;23.00;37.40;;;;;;1622254;71;783;-59
2021/03/05 03:14:38;;;;;;;;;;;23.00;37.40;;;;;;1621757;71;1905;-56
2021/03/05 03:16:41;;;;;;;;;;;23.00;37.40;;;;;;1615697;71;760;-59
2021/03/05 03:18:42;;;;;;;;;;;23.00;37.40;;;;;;1627508;71;740;-59
2021/03/05 03:20:44;;;;;;;;;;;22.90;37.30;;;;;;1621122;71;1130;-58
2021/03/05 03:22:46;;;;;;;;;;;23.00;37.30;;;;;;1617887;71;732;-59
2021/03/05 03:24:48;;;;;;;;;;;23.00;37.40;;;;;;1625691;71;737;-58
2021/03/05 03:26:50;;;;;;;;;;;22.90;37.50;;;;;;1620182;71;718;-58
2021/03/05 03:28:52;;;;;;;;;;;22.90;37.40;;;;;;1607738;71;778;-59
2021/03/05 03:30:54;;;;;;;;;;;22.80;37.10;;;;;;1624109;71;1209;-59
2021/03/05 03:32:56;;;;;;;;;;;22.90;37.20;;;;;;1625716;71;745;-59
2021/03/05 03:34:58;;;;;;;;;;;22.80;37.20;;;;;;1590493;73;1938;-58
2021/03/05 03:36:59;;;;;;;;;;;22.80;37.30;;;;;;1631562;71;699;-57
2021/03/05 03:39:01;;;;;;;;;;;22.70;37.40;;;;;;1613756;71;1231;-56
2021/03/05 03:41:03;;;;;;;;;;;22.70;37.60;;;;;;1639450;71;784;-58
2021/03/05 03:43:05;;;;;;;;;;;22.60;37.80;;;;;;1637186;71;735;-57
2021/03/05 03:45:07;;;;;;;;;;;22.60;38.10;;;;;;1623792;71;710;-58
2021/03/05 03:47:09;;;;;;;;;;;22.50;38.20;;;;;;1626825;71;738;-58
2021/03/05 03:49:12;;;;;;;;;;;22.40;38.10;;;;;;1615638;71;1146;-58
2021/03/05 03:51:15;;;;;;;;;;;22.50;38.20;;;;;;1620048;71;776;-57
2021/03/05 03:53:19;;;;;;;;;;;22.40;38.20;;;;;;1629998;71;784;-57
2021/03/05 03:55:21;;;;;;;;;;;22.40;38.30;;;;;;1624162;71;1944;-57
2021/03/05 03:57:23;;;;;;;;;;;22.40;38.20;;;;;;1626423;71;775;-57
2021/03/05 03:59:25;;;;;;;;;;;22.40;38.20;;;;;;1618685;71;1168;-58
2021/03/05 04:01:27;;;;;;;;;;;22.40;38.20;;;;;;1621989;71;707;-59
2021/03/05 04:03:30;;;;;;;;;;;22.40;38.10;;;;;;1620787;71;764;-57
2021/03/05 04:05:34;;;;;;;;;;;22.40;38.10;;;;;;1627090;71;710;-58
2021/03/05 04:07:36;;;;;;;;;;;22.50;38.20;;;;;;1635851;71;792;-57
2021/03/05 04:09:37;;;;;;;;;;;22.50;38.30;;;;;;1626864;71;1128;-57
2021/03/05 04:11:40;;;;;;;;;;;22.50;38.40;;;;;;1573755;71;217979;-68
2021/03/05 04:13:42;;;;;;;;;;;22.50;38.40;;;;;;1577608;74;703;-69
2021/03/05 04:15:44;;;;;;;;;;;22.60;38.40;;;;;;1574878;74;1938;-68
2021/03/05 04:17:46;;;;;;;;;;;22.60;38.40;;;;;;1575882;74;853;-66
2021/03/05 04:19:51;;;;;;;;;;;22.50;38.40;;;;;;1575082;74;1146;-67
2021/03/05 04:21:53;;;;;;;;;;;22.60;38.50;;;;;;1580067;74;827;-68
2021/03/05 04:23:55;;;;;;;;;;;22.60;38.60;;;;;;1580633;74;843;-68
2021/03/05 04:25:57;;;;;;;;;;;22.60;38.50;;;;;;1581374;74;754;-68
2021/03/05 04:27:59;;;;;;;;;;;22.50;38.50;;;;;;1581769;74;766;-67
2021/03/05 04:30:01;;;;;;;;;;;22.60;38.40;;;;;;1581697;74;1163;-69
2021/03/05 04:32:03;;;;;;;;;;;22.60;38.40;;;;;;1584849;74;863;-68
2021/03/05 04:34:04;;;;;;;;;;;22.70;38.40;;;;;;1595121;74;1932;-68
2021/03/05 04:36:06;;;;;;;;;;;22.60;38.30;;;;;;1590690;74;785;-67
2021/03/05 04:38:08;;;;;;;;;;;22.60;38.40;;;;;;1583378;74;753;-67
2021/03/05 04:40:10;;;;;;;;;;;22.60;38.40;;;;;;1596008;72;1141;-68
2021/03/05 04:42:12;;;;;;;;;;;22.60;38.40;;;;;;1583335;74;793;-69
2021/03/05 04:44:14;;;;;;;;;;;22.60;38.30;;;;;;1589553;74;824;-67
2021/03/05 04:46:16;;;;;;;;;;;22.70;38.40;;;;;;1591612;74;798;-66
2021/03/05 04:48:18;;;;;;;;;;;22.70;38.40;;;;;;1584591;74;737;-68
2021/03/05 04:50:20;;;;;;;;;;;22.80;38.30;;;;;;1580912;74;1155;-68
2021/03/05 04:52:22;;;;;;;;;;;22.70;38.70;;;;;;1578487;74;737;-66
2021/03/05 04:54:24;;;;;;;;;;;22.80;38.70;;;;;;1573098;74;1944;-67
2021/03/05 04:56:26;;;;;;;;;;;22.80;38.70;;;;;;1587262;74;705;-68
2021/03/05 04:58:28;;;;;;;;;;;22.80;38.60;;;;;;1584760;74;695;-70
2021/03/05 05:00:29;;;;;;;;;;;22.80;38.60;;;;;;1595330;73;1152;-68
2021/03/05 05:02:31;;;;;;;;;;;22.80;38.60;;;;;;1598018;74;772;-65
2021/03/05 05:04:33;;;;;;;;;;;22.80;38.60;;;;;;1590657;74;782;-67
2021/03/05 05:06:35;;;;;;;;;;;22.70;38.50;;;;;;1590697;74;839;-68
2021/03/05 05:08:37;;;;;;;;;;;22.80;38.50;;;;;;1592804;74;791;-68
2021/03/05 05:10:39;;;;;;;;;;;22.80;38.50;;;;;;1595629;73;1133;-67
2021/03/05 05:12:41;;;;;;;;;;;22.80;38.60;;;;;;1591220;74;699;-67
2021/03/05 05:14:43;;;;;;;;;;;22.80;38.40;;;;;;1592423;74;1937;-68
2021/03/05 05:16:44;;;;;;;;;;;22.80;38.30;;;;;;1590637;74;796;-66
2021/03/05 05:18:46;;;;;;;;;;;22.90;38.60;;;;;;1584417;74;781;-67
2021/03/05 05:20:48;;;;;;;;;;;22.90;38.40;;;;;;1599989;72;1231;-67
2021/03/05 05:22:50;;;;;;;;;;;22.80;38.40;;;;;;1580626;74;774;-67
2021/03/05 05:24:52;;;;;;;;;;;22.90;38.50;;;;;;1580245;74;715;-67
2021/03/05 05:26:54;;;;;;;;;;;22.80;38.30;;;;;;1581210;74;784;-68
2021/03/05 05:28:56;;;;;;;;;;;22.90;38.40;;;;;;1593868;74;723;-67
2021/03/05 05:30:58;;;;;;;;;;;22.80;38.10;;;;;;1593662;74;1162;-68
2021/03/05 05:32:59;;;;;;;;;;;22.90;38.20;;;;;;1590983;74;769;-66
2021/03/05 05:35:01;;;;;;;;;;;22.80;38.00;;;;;;1590231;74;1930;-66
2021/03/05 05:37:03;;;;;;;;;;;22.80;38.00;;;;;;1588612;74;738;-68
2021/03/05 05:39:05;;;;;;;;;;;22.90;38.00;;;;;;1582489;74;832;-67
2021/03/05 05:41:07;;;;;;;;;;;22.90;38.00;;;;;;1582511;74;1170;-66
2021/03/05 05:43:09;;;;;;;;;;;22.90;37.90;;;;;;1581773;74;775;-67
2021/03/05 05:45:11;;;;;;;;;;;22.90;38.00;;;;;;1541425;75;848;-64
2021/03/05 05:47:14;;;;;;;;;;;22.90;38.10;;;;;;1585786;74;685;-67
2021/03/05 05:49:16;;;;;;;;;;;22.90;37.90;;;;;;1584656;74;1073;-69
2021/03/05 05:51:18;;;;;;;;;;;22.90;37.80;;;;;;1582876;74;1131;-66
2021/03/05 05:53:20;;;;;;;;;;;22.90;37.80;;;;;;1583055;74;641;-67
2021/03/05 05:55:22;;;;;;;;;;;23.00;37.70;;;;;;1582758;74;1943;-66
2021/03/05 05:57:24;;;;;;;;;;;22.90;37.90;;;;;;1585258;74;717;-69
2021/03/05 05:59:26;;;;;;;;;;;22.90;37.90;;;;;;1584995;74;760;-69
2021/03/05 06:01:28;;;;;;;;;;;23.00;37.90;;;;;;1585428;74;1094;-69
2021/03/05 06:03:30;;;;;;;;;;;22.90;37.90;;;;;;1550663;75;1323;-69
2021/03/05 06:05:32;;;;;;;;;;;23.00;37.80;;;;;;1582444;74;806;-68
2021/03/05 06:07:34;;;;;;;;;;;22.90;37.80;;;;;;1578271;74;834;-66
2021/03/05 06:09:35;;;;;;;;;;;23.00;37.80;;;;;;1585235;74;778;-69
2021/03/05 06:11:38;;;;;;;;;;;23.00;37.70;;;;;;1585113;74;1078;-68
2021/03/05 06:13:40;;;;;;;;;;;23.00;37.70;;;;;;1582092;74;725;-69
2021/03/05 06:15:42;;;;;;;;;;;22.90;37.70;;;;;;1585130;74;1949;-70
2021/03/05 06:17:45;;;;;;;;;;;23.00;37.70;;;;;;1581111;74;776;-68
2021/03/05 06:19:47;;;;;;;;;;;22.90;37.80;;;;;;1584068;74;1169;-69
2021/03/05 06:21:49;;;;;;;;;;;22.90;37.70;;;;;;1585072;74;685;-69
2021/03/05 06:24:01;;;;;;;;;;;23.00;37.60;;;;;;1584414;74;798;-67
2021/03/05 06:26:03;;;;;;;;;;;22.90;37.60;;;;;;1586193;74;836;-68
2021/03/05 06:28:15;;;;;;;;;;;23.00;37.60;;;;;;1589276;74;767;-68
2021/03/05 06:30:18;;;;;;;;;;;23.00;37.60;;;;;;1583734;74;1166;-67
2021/03/05 06:32:19;;;;;;;;;;;23.00;37.50;;;;;;1547332;76;1306;-69
2021/03/05 06:34:21;;;;;;;;;;;23.00;37.70;;;;;;1581405;74;745;-69
2021/03/05 06:36:23;;;;;;;;;;;23.00;37.70;;;;;;1581581;74;1942;-68
2021/03/05 06:38:39;;;;;;;;;;;23.10;37.80;;;;;;1583835;74;777;-68
2021/03/05 06:40:41;;;;;;;;;;;23.00;37.50;;;;;;1582553;74;1076;-68
2021/03/05 06:42:50;;;;;;;;;;;23.00;37.70;;;;;;1576096;74;775;-65
2021/03/05 06:44:53;;;;;;;;;;;23.00;37.80;;;;;;1583111;74;802;-70
2021/03/05 06:46:55;;;;;;;;;;;23.00;37.90;;;;;;1584202;74;773;-68
2021/03/05 06:48:57;;;;;;;;;;;23.00;37.70;;;;;;1577567;74;745;-67
2021/03/05 06:51:01;;;;;;;;;;;23.10;37.90;;;;;;1593138;74;1156;-66
2021/03/05 06:53:04;;;;;;;;;;;23.10;38.00;;;;;;1582504;74;1924;-66
2021/03/05 06:55:06;;;;;;;;;;;23.10;37.20;;;;;;1586382;74;1926;-67
2021/03/05 06:57:09;;;;;;;;;;;23.10;37.10;;;;;;1593872;74;717;-66
2021/03/05 06:59:11;;;;;;;;;;;23.10;37.10;;;;;;1576207;74;859;-66
2021/03/05 07:01:13;;;;;;;;;;;23.10;37.10;;;;;;1594921;74;1126;-67
2021/03/05 07:03:20;;;;;;;;;;;23.10;37.10;;;;;;1594466;74;804;-67
2021/03/05 07:05:40;;;;;;;;;;;23.00;36.90;;;;;;1585526;74;684;-64
2021/03/05 07:07:42;;;;;;;;;;;23.10;37.10;;;;;;1582312;74;780;-67
2021/03/05 07:09:47;;;;;;;;;;;23.10;37.00;;;;;;1586777;74;838;-68
2021/03/05 07:11:50;;;;;;;;;;;23.10;36.90;;;;;;1583586;74;821;-68
2021/03/05 07:13:52;;;;;;;;;;;23.20;36.60;;;;;;1578323;74;700;-68
2021/03/05 07:15:54;;;;;;;;;;;23.10;36.50;;;;;;1591706;74;1933;-70
2021/03/05 07:17:58;;;;;;;;;;;23.20;36.30;;;;;;1584687;74;769;-66
2021/03/05 07:20:00;;;;;;;;;;;23.20;36.20;;;;;;1582972;74;1136;-66
2021/03/05 07:22:02;;;;;;;;;;;23.10;36.20;;;;;;1581785;74;859;-66
2021/03/05 07:24:04;;;;;;;;;;;23.10;36.00;;;;;;1583085;74;753;-66
2021/03/05 07:26:06;;;;;;;;;;;23.10;35.90;;;;;;1601599;74;799;-67
2021/03/05 07:28:08;;;;;;;;;;;23.10;35.80;;;;;;1590249;74;716;-67
2021/03/05 07:30:12;;;;;;;;;;;23.10;35.80;;;;;;1588029;74;1269;-66
2021/03/05 07:32:18;;;;;;;;;;;23.10;35.80;;;;;;1592609;74;1278;-67
2021/03/05 07:34:20;;;;;;;;;;;23.10;35.70;;;;;;1595428;74;842;-68
2021/03/05 07:36:22;;;;;;;;;;;23.10;35.60;;;;;;1581664;74;1941;-62
2021/03/05 07:38:24;;;;;;;;;;;23.10;35.60;;;;;;1592852;74;742;-67
2021/03/05 07:40:26;;;;;;;;;;;23.20;35.50;;;;;;1582786;74;1132;-70
2021/03/05 07:42:28;;;;;;;;;;;23.10;35.40;;;;;;1584995;74;803;-66
2021/03/05 07:44:30;;;;;;;;;;;23.10;35.50;;;;;;1583165;74;800;-70
2021/03/05 07:46:31;;;;;;;;;;;23.10;35.20;;;;;;1587980;74;764;-68
2021/03/05 07:48:33;;;;;;;;;;;23.10;35.00;;;;;;1577120;74;771;-66
2021/03/05 07:50:35;;;;;;;;;;;23.10;35.00;;;;;;1582588;74;1139;-67
2021/03/05 07:52:37;;;;;;;;;;;23.20;34.90;;;;;;1579376;74;656;-67
2021/03/05 07:54:46;;;;;;;;;;;23.10;34.70;;;;;;1583206;74;677;-70
2021/03/05 07:56:49;;;;;;;;;;;23.10;34.70;;;;;;1582016;74;1945;-67
2021/03/05 07:58:51;;;;;;;;;;;23.10;34.40;;;;;;1586187;74;747;-68
2021/03/05 08:00:54;;;;;;;;;;;23.00;34.20;;;;;;1584395;74;1126;-66
2021/03/05 08:02:59;;;;;;;;;;;23.00;34.20;;;;;;1581636;74;795;-67
2021/03/05 08:05:06;;;;;;;;;;;23.00;34.20;;;;;;1584476;74;1459;-67
2021/03/05 08:07:09;;;;;;;;;;;23.00;34.10;;;;;;1584876;74;701;-66
2021/03/05 08:09:11;;;;;;;;;;;23.00;34.00;;;;;;1583611;74;749;-68
2021/03/05 08:11:14;;;;;;;;;;;23.00;33.90;;;;;;1584074;74;1139;-66
2021/03/05 08:13:35;;;;;;;;;;;23.00;34.20;;;;;;1545365;75;1256;-66
2021/03/05 08:15:35;;;;;;;;;;;23.00;33.90;;;;;;1584732;74;1922;-68
2021/03/05 08:17:39;;;;;;;;;;;22.90;33.80;;;;;;1581543;74;775;-67
2021/03/05 08:19:41;;;;;;;;;;;23.00;33.80;;;;;;1583702;74;735;-67
2021/03/05 08:22:04;;;;;;;;;;;23.00;33.90;;;;;;1585251;74;1186;-64
2021/03/05 08:24:21;;;;;;;;;;;22.90;33.90;;;;;;1580966;74;1603;-67
2021/03/05 08:26:24;;;;;;;;;;;23.00;33.50;;;;;;1581047;74;780;-65
2021/03/05 08:28:37;;;;;;;;;;;23.00;33.60;;;;;;1580029;74;1116;-66
2021/03/05 08:30:42;;;;;;;;;;;22.90;33.50;;;;;;1585025;74;1157;-66
2021/03/05 08:32:49;;;;;;;;;;;22.90;33.60;;;;;;1584162;74;744;-66
2021/03/05 08:34:50;;;;;;;;;;;22.80;33.20;;;;;;1583407;74;1969;-65
2021/03/05 08:36:52;;;;;;;;;;;22.90;33.40;;;;;;1583776;74;1945;-70
2021/03/05 08:38:54;;;;;;;;;;;22.90;33.40;;;;;;1581911;74;818;-68
2021/03/05 08:41:03;;;;;;;;;;;22.70;33.20;;;;;;1579783;74;1132;-65
2021/03/05 08:43:14;;;;;;;;;;;22.80;33.20;;;;;;1583316;74;1625;-67
2021/03/05 08:45:16;;;;;;;;;;;22.80;33.00;;;;;;1584337;74;748;-67
2021/03/05 08:47:18;;;;;;;;;;;22.80;33.10;;;;;;1585821;74;871;-66
2021/03/05 08:49:20;;;;;;;;;;;22.80;33.10;;;;;;1577734;74;883;-68
2021/03/05 08:51:22;;;;;;;;;;;22.80;33.00;;;;;;1578661;74;1148;-66
2021/03/05 08:53:24;;;;;;;;;;;22.80;32.90;;;;;;1584919;74;780;-69
2021/03/05 08:55:28;;;;;;;;;;;22.80;32.90;;;;;;1585076;74;809;-69
2021/03/05 08:57:31;;;;;;;;;;;22.80;32.80;;;;;;1586275;74;1800;-67
2021/03/05 08:59:35;;;;;;;;;;;22.80;32.80;;;;;;1580958;74;1929;-66
2021/03/05 09:01:40;;;;;;;;;;;22.80;32.70;;;;;;1583209;74;1060;-67
2021/03/05 09:03:41;;;;;;;;;;;22.70;32.70;;;;;;1586253;74;776;-68
2021/03/05 09:05:44;;;;;;;;;;;22.80;32.60;;;;;;1585937;74;754;-67
2021/03/05 09:07:47;;;;;;;;;;;22.70;32.60;;;;;;1582169;74;802;-67
2021/03/05 09:09:52;;;;;;;;;;;22.70;32.60;;;;;;1586752;74;1152;-66
2021/03/05 09:12:11;;;;;;;;;;;22.80;32.60;;;;;;1583520;74;777;-67
2021/03/05 09:14:20;;;;;;;;;;;22.80;32.60;;;;;;1586037;74;783;-67
2021/03/05 09:16:24;;;;;;;;;;;22.70;32.60;;;;;;1585095;74;1932;-65
2021/03/05 09:18:26;;;;;;;;;;;22.80;32.70;;;;;;1583383;74;728;-69
2021/03/05 09:20:30;;;;;;;;;;;22.80;32.60;;;;;;1580123;74;1182;-68
2021/03/05 09:22:32;;;;;;;;;;;22.70;33.30;;;;;;1577881;74;1831;-69
2021/03/05 09:24:52;;;;;;;;;;;22.80;33.50;;;;;;1583846;74;907;-66
2021/03/05 09:26:54;;;;;;;;;;;22.80;33.70;;;;;;1582758;74;804;-67
2021/03/05 09:29:02;;;;;;;;;;;22.80;33.80;;;;;;1579970;74;780;-68
2021/03/05 09:30:59;;;;;;;;;;;22.90;34.00;;;;;;1580083;74;1644;-66
2021/03/05 09:33:01;;;;;;;;;;;22.90;34.10;;;;;;1586511;74;751;-67
2021/03/05 09:35:03;;;;;;;;;;;22.90;34.10;;;;;;1583604;74;719;-68
2021/03/05 09:37:07;;;;;;;;;;;22.90;34.20;;;;;;1581949;74;1921;-67
2021/03/05 09:39:09;;;;;;;;;;;22.90;34.20;;;;;;1585117;74;1941;-66
2021/03/05 09:41:11;;;;;;;;;;;22.90;34.20;;;;;;1583480;74;1154;-68
2021/03/05 09:43:14;;;;;;;;;;;23.00;34.30;;;;;;1581277;74;749;-68
2021/03/05 09:45:32;;;;;;;;;;;22.90;34.40;;;;;;1582676;74;885;-67
2021/03/05 09:47:47;;;;;;;;;;;22.90;34.60;;;;;;1581478;74;771;-67
2021/03/05 09:49:48;;;;;;;;;;;23.00;34.50;;;;;;1582840;74;1124;-68
2021/03/05 09:51:50;;;;;;;;;;;23.00;34.60;;;;;;1582264;74;800;-69
2021/03/05 09:53:56;;;;;;;;;;;23.00;34.70;;;;;;1586295;74;712;-69
2021/03/05 09:55:59;;;;;;;;;;;23.00;34.70;;;;;;1580670;74;1935;-69
2021/03/05 09:58:10;;;;;;;;;;;23.10;34.80;;;;;;1549620;75;822;-69
2021/03/05 10:00:14;;;;;;;;;;;23.10;35.00;;;;;;1584289;74;1143;-71
2021/03/05 10:02:17;;;;;;;;;;;23.00;34.40;;;;;;1583614;74;1491;-70
2021/03/05 10:04:18;;;;;;;;;;;23.10;34.10;;;;;;1586386;74;812;-70
2021/03/05 10:06:20;;;;;;;;;;;23.20;33.90;;;;;;1585466;74;744;-67
2021/03/05 10:08:24;;;;;;;;;;;23.10;33.70;;;;;;1579107;74;742;-69
2021/03/05 10:12:52;;;;;;;;;;;23.10;33.70;;;;;;1596298;72;1551;-66
2021/03/05 10:14:55;;;;;;;;;;;23.10;33.70;;;;;;1601354;73;733;-66
2021/03/05 10:17:12;;;;;;;;;;;23.00;33.50;;;;;;1585405;72;1943;-69
2021/03/05 10:19:16;;;;;;;;;;;23.00;33.50;;;;;;1596994;72;1605;-67
2021/03/05 10:21:18;;;;;;;;;;;23.00;33.60;;;;;;1588539;72;1230;-67
2021/03/05 10:23:20;;;;;;;;;;;22.90;33.50;;;;;;1574810;74;782;-66
2021/03/05 10:25:22;;;;;;;;;;;23.00;33.50;;;;;;1538597;75;694;-67
2021/03/05 10:27:24;;;;;;;;;;;23.00;33.60;;;;;;1529036;76;768;-67
2021/03/05 10:29:26;;;;;;;;;;;23.00;33.40;;;;;;1529806;76;726;-66
2021/03/05 10:31:44;;;;;;;;;;;23.00;33.40;;;;;;1528562;76;1151;-66
2021/03/05 10:33:46;;;;;;;;;;;22.90;33.40;;;;;;1526303;76;695;-62
2021/03/05 10:35:47;;;;;;;;;;;23.00;33.40;;;;;;1528122;76;720;-65
2021/03/05 10:37:50;;;;;;;;;;;22.90;33.40;;;;;;1522360;77;1929;-64
2021/03/05 10:39:52;;;;;;;;;;;23.00;33.40;;;;;;1546867;75;683;-64
2021/03/05 10:41:55;;;;;;;;;;;22.90;33.40;;;;;;1547587;75;1184;-65
2021/03/05 10:43:57;;;;;;;;;;;22.90;33.40;;;;;;1545626;75;716;-64
2021/03/05 10:45:59;;;;;;;;;;;23.00;33.40;;;;;;1544119;75;758;-65
2021/03/05 10:48:00;;;;;;;;;;;23.00;33.30;;;;;;1541327;75;699;-65
2021/03/05 10:50:03;;;;;;;;;;;23.00;33.20;;;;;;1548105;75;710;-64
2021/03/05 10:52:06;;;;;;;;;;;23.00;33.20;;;;;;1544821;75;1146;-65
2021/03/05 10:54:08;;;;;;;;;;;23.00;33.10;;;;;;1544977;75;669;-66
2021/03/05 10:56:09;;;;;;;;;;;22.90;33.20;;;;;;1546541;75;1937;-65
2021/03/05 10:58:12;;;;;;;;;;;23.00;33.10;;;;;;1545854;75;794;-65
2021/03/05 11:00:14;;;;;;;;;;;23.00;33.10;;;;;;1542812;75;733;-65
2021/03/05 11:02:16;;;;;;;;;;;23.00;33.00;;;;;;1543826;75;1161;-66
2021/03/05 11:04:18;;;;;;;;;;;23.00;33.00;;;;;;1547635;75;613;-66
2021/03/05 11:06:20;;;;;;;;;;;23.00;33.00;;;;;;1540828;75;670;-65
2021/03/05 11:08:22;;;;;;;;;;;23.00;32.90;;;;;;1544006;75;720;-64
2021/03/05 11:10:24;;;;;;;;;;;23.00;32.90;;;;;;1542179;75;712;-65
2021/03/05 11:12:26;;;;;;;;;;;23.00;32.90;;;;;;1544839;75;1154;-65
2021/03/05 11:14:28;;;;;;;;;;;23.00;32.90;;;;;;1541579;75;794;-66
2021/03/05 11:16:30;;;;;;;;;;;23.10;33.00;;;;;;1548577;75;1920;-66
2021/03/05 11:18:32;;;;;;;;;;;23.00;32.90;;;;;;1546690;75;784;-64
2021/03/05 11:20:34;;;;;;;;;;;23.00;32.90;;;;;;1548210;75;1171;-65
2021/03/05 11:22:36;;;;;;;;;;;23.00;32.80;;;;;;1544485;75;713;-65
2021/03/05 11:24:38;;;;;;;;;;;23.00;32.90;;;;;;1548598;75;725;-66
2021/03/05 11:26:40;;;;;;;;;;;23.00;33.00;;;;;;1547863;75;710;-68
2021/03/05 11:28:42;;;;;;;;;;;23.00;33.10;;;;;;1547990;75;689;-66
2021/03/05 11:30:45;;;;;;;;;;;22.90;33.10;;;;;;1547570;75;1222;-67
2021/03/05 11:32:47;;;;;;;;;;;23.00;33.20;;;;;;1548251;75;833;-65
2021/03/05 11:34:49;;;;;;;;;;;23.00;33.20;;;;;;1543238;75;719;-64
2021/03/05 11:36:51;;;;;;;;;;;22.90;33.20;;;;;;1532746;77;1927;-65
2021/03/05 11:38:53;;;;;;;;;;;23.00;33.30;;;;;;1542446;75;723;-66
2021/03/05 11:40:55;;;;;;;;;;;23.00;33.30;;;;;;1548086;75;1129;-65
2021/03/05 11:42:57;;;;;;;;;;;22.90;33.40;;;;;;1546134;75;782;-65
2021/03/05 11:45:04;;;;;;;;;;;23.00;33.40;;;;;;1546797;75;820;-64
2021/03/05 11:47:02;;;;;;;;;;;22.90;33.50;;;;;;1546594;75;1590;-65
2021/03/05 11:49:04;;;;;;;;;;;23.00;33.50;;;;;;1548982;75;731;-65
2021/03/05 11:51:06;;;;;;;;;;;23.00;33.50;;;;;;1548919;75;1164;-65
2021/03/05 11:53:08;;;;;;;;;;;23.00;33.50;;;;;;1548572;75;777;-65
2021/03/05 11:55:10;;;;;;;;;;;23.00;33.50;;;;;;1543287;75;777;-65
2021/03/05 11:57:12;;;;;;;;;;;23.00;33.50;;;;;;1544415;75;1939;-65
2021/03/05 11:59:14;;;;;;;;;;;22.90;33.50;;;;;;1544771;75;672;-65
2021/03/05 12:01:16;;;;;;;;;;;23.00;33.50;;;;;;1547238;75;1153;-67
2021/03/05 12:03:18;;;;;;;;;;;23.00;33.50;;;;;;1548123;75;816;-65
2021/03/05 12:05:20;;;;;;;;;;;23.00;33.50;;;;;;1547198;75;733;-65
2021/03/05 12:07:22;;;;;;;;;;;23.00;33.50;;;;;;1547005;75;764;-66
2021/03/05 12:09:23;;;;;;;;;;;23.00;33.50;;;;;;1547232;75;751;-65
2021/03/05 12:11:25;;;;;;;;;;;23.00;33.50;;;;;;1548301;75;1154;-65
2021/03/05 12:13:27;;;;;;;;;;;22.90;33.60;;;;;;1546408;75;764;-65
2021/03/05 12:15:29;;;;;;;;;;;23.00;33.80;;;;;;1548381;75;669;-65
2021/03/05 12:17:31;;;;;;;;;;;23.00;33.90;;;;;;1547061;75;1931;-67